Time;durP1;ratioP1;P1;durP2;ratioP2;P2;SDS_P1;SDS_P2;PMS_P1;PMS_P2;Temp;Humidity;BMP_temperature;BMP_pressure;BME280_temperature;BME280_humidity;BME280_pressure;Samples;Min_cycle;Max_cycle;Signal;HPM_P1;HPM_P2
2021/08/28 00:00:29;;;;;;;3.13;2.83;;;15.30;99.90;;;;;;4993659;28;20532;-62
2021/08/28 00:02:55;;;;;;;3.57;3.27;;;15.20;99.90;;;;;;4993958;28;20198;-64
2021/08/28 00:05:20;;;;;;;5.50;3.47;;;15.10;99.90;;;;;;4993239;28;20582;-63
2021/08/28 00:07:46;;;;;;;3.20;3.00;;;15.20;99.90;;;;;;4993843;28;20174;-63
2021/08/28 00:10:12;;;;;;;4.80;3.70;;;15.20;99.90;;;;;;4993537;28;20451;-64
2021/08/28 00:12:37;;;;;;;4.17;3.10;;;15.20;99.90;;;;;;4993782;28;20171;-63
2021/08/28 00:15:07;;;;;;;3.87;3.50;;;15.20;99.90;;;;;;4993728;28;20521;-64
2021/08/28 00:17:34;;;;;;;5.70;3.13;;;15.30;99.90;;;;;;4993583;28;20281;-63
2021/08/28 00:20:02;;;;;;;3.73;3.20;;;15.20;99.90;;;;;;4993235;28;20423;-64
2021/08/28 00:22:28;;;;;;;5.10;4.30;;;15.20;99.90;;;;;;4993476;28;20411;-64
2021/08/28 00:24:53;;;;;;;4.20;3.80;;;15.00;99.90;;;;;;4993744;28;20439;-62
2021/08/28 00:27:19;;;;;;;4.37;3.50;;;15.00;99.90;;;;;;4993417;28;20225;-64
2021/08/28 00:29:44;;;;;;;3.80;3.47;;;15.00;99.90;;;;;;4993089;28;20542;-63
2021/08/28 00:32:10;;;;;;;5.30;4.60;;;14.80;99.90;;;;;;4993444;28;20170;-63
2021/08/28 00:34:35;;;;;;;4.10;3.80;;;14.80;99.90;;;;;;4993433;28;20270;-64
2021/08/28 00:37:01;;;;;;;4.20;3.77;;;14.80;99.90;;;;;;4993031;28;20203;-63
2021/08/28 00:39:26;;;;;;;4.37;4.03;;;14.80;99.90;;;;;;4992990;28;20548;-63
2021/08/28 00:41:52;;;;;;;9.47;4.33;;;14.90;99.90;;;;;;4993262;28;20167;-63
2021/08/28 00:44:17;;;;;;;4.03;3.73;;;14.90;99.90;;;;;;4993165;28;20167;-63
2021/08/28 00:46:43;;;;;;;5.07;3.30;;;15.00;99.90;;;;;;4993050;28;20242;-64
2021/08/28 00:49:08;;;;;;;3.13;2.90;;;15.00;99.90;;;;;;4992811;28;20180;-64
2021/08/28 00:51:35;;;;;;;5.03;4.00;;;15.00;99.90;;;;;;4992937;28;20207;-64
2021/08/28 00:54:01;;;;;;;4.37;3.90;;;15.00;99.90;;;;;;4993048;28;20175;-63
2021/08/28 00:56:28;;;;;;;4.77;3.33;;;14.90;99.90;;;;;;4992892;28;20462;-62
2021/08/28 00:58:54;;;;;;;4.00;3.70;;;14.90;99.90;;;;;;4992681;28;20229;-63
2021/08/28 01:01:22;;;;;;;6.30;3.70;;;14.90;99.90;;;;;;4992947;28;20418;-64
2021/08/28 01:03:57;;;;;;;3.97;3.67;;;14.90;99.90;;;;;;4992901;28;20168;-63
2021/08/28 01:06:39;;;;;;;4.60;4.10;;;14.90;99.90;;;;;;4992735;28;20446;-62
2021/08/28 01:09:13;;;;;;;4.07;3.70;;;14.80;99.90;;;;;;4992606;28;20729;-64
2021/08/28 01:11:47;;;;;;;7.93;4.67;;;14.80;99.90;;;;;;4992854;28;20414;-63
2021/08/28 01:14:26;;;;;;;4.57;4.10;;;14.80;99.90;;;;;;4992874;28;20429;-63
2021/08/28 01:16:59;;;;;;;3.80;3.50;;;14.70;99.90;;;;;;4991668;28;20484;-64
2021/08/28 01:19:37;;;;;;;4.10;3.50;;;14.80;99.90;;;;;;4992453;28;20935;-64
2021/08/28 01:22:13;;;;;;;5.13;3.30;;;14.80;99.90;;;;;;4992689;28;20415;-64
2021/08/28 01:24:42;;;;;;;5.23;3.57;;;14.80;99.90;;;;;;4992697;28;20505;-63
2021/08/28 01:27:32;;;;;;;4.63;3.93;;;14.80;99.90;;;;;;4992455;28;20449;-63
2021/08/28 01:29:59;;;;;;;3.70;3.33;;;14.90;99.90;;;;;;4992309;28;20418;-64
2021/08/28 01:32:27;;;;;;;7.10;3.83;;;14.90;99.90;;;;;;4992909;28;20782;-64
2021/08/28 01:34:55;;;;;;;4.17;3.73;;;14.90;99.90;;;;;;4992557;28;20419;-63
2021/08/28 01:37:20;;;;;;;3.57;3.27;;;14.90;99.90;;;;;;4992284;28;20459;-63
2021/08/28 01:39:47;;;;;;;4.60;3.40;;;14.90;99.90;;;;;;4992199;28;20426;-64
2021/08/28 01:42:14;;;;;;;5.37;4.20;;;14.90;99.90;;;;;;4992712;28;20171;-63
2021/08/28 01:44:45;;;;;;;4.03;3.50;;;14.80;99.90;;;;;;4992470;28;20426;-64
2021/08/28 01:47:13;;;;;;;4.60;3.30;;;14.90;99.90;;;;;;4992372;28;20438;-64
2021/08/28 01:49:40;;;;;;;4.27;3.27;;;14.80;99.90;;;;;;4992154;28;20415;-64
2021/08/28 01:52:06;;;;;;;4.00;3.60;;;14.90;99.90;;;;;;4992803;28;20446;-63
2021/08/28 01:54:31;;;;;;;4.53;4.13;;;14.90;99.90;;;;;;4992403;28;20461;-64
2021/08/28 01:56:58;;;;;;;4.07;3.77;;;14.90;99.90;;;;;;4992594;28;20214;-64
2021/08/28 01:59:23;;;;;;;8.80;3.97;;;14.80;99.90;;;;;;4992117;28;20168;-64
2021/08/28 02:01:49;;;;;;;4.20;3.80;;;14.80;99.90;;;;;;4992324;28;20964;-64
2021/08/28 02:04:14;;;;;;;3.97;3.60;;;14.80;99.90;;;;;;4992357;28;20167;-64
2021/08/28 02:06:55;;;;;;;4.23;3.83;;;14.80;99.90;;;;;;4992082;28;20215;-64
2021/08/28 02:09:29;;;;;;;5.40;5.00;;;14.80;99.90;;;;;;4992244;28;20175;-63
2021/08/28 02:12:08;;;;;;;6.77;4.23;;;14.80;99.90;;;;;;4992407;28;20797;-63
2021/08/28 02:14:40;;;;;;;4.87;4.53;;;14.70;99.90;;;;;;4992295;28;20444;-63
2021/08/28 02:17:08;;;;;;;4.93;4.53;;;14.80;99.90;;;;;;4991863;28;20470;-63
2021/08/28 02:19:37;;;;;;;5.23;4.73;;;14.80;99.90;;;;;;4991895;28;20449;-63
2021/08/28 02:22:11;;;;;;;5.40;4.20;;;14.80;99.90;;;;;;4992143;28;20402;-64
2021/08/28 02:24:39;;;;;;;4.90;4.30;;;14.80;99.90;;;;;;4992193;28;20407;-64
2021/08/28 02:27:14;;;;;;;4.93;4.40;;;14.70;99.90;;;;;;4992025;28;20468;-64
2021/08/28 02:29:52;;;;;;;5.60;4.67;;;14.60;99.90;;;;;;4995382;28;20464;-64
2021/08/28 02:32:19;;;;;;;4.93;4.53;;;14.60;99.90;;;;;;4995532;28;20422;-64
2021/08/28 02:34:46;;;;;;;4.77;4.30;;;14.70;99.90;;;;;;4995787;28;20423;-64
2021/08/28 02:37:13;;;;;;;5.07;4.57;;;14.70;99.90;;;;;;4995395;28;20575;-64
2021/08/28 02:39:41;;;;;;;5.20;4.73;;;14.60;99.90;;;;;;4995286;28;20792;-63
2021/08/28 02:42:08;;;;;;;6.73;6.13;;;14.70;99.90;;;;;;4995448;28;20425;-64
2021/08/28 02:44:37;;;;;;;6.03;5.53;;;14.60;99.90;;;;;;4995459;28;20489;-62
2021/08/28 02:47:03;;;;;;;5.33;4.93;;;14.70;99.90;;;;;;4995320;28;20447;-63
2021/08/28 02:49:30;;;;;;;6.27;5.80;;;14.80;99.90;;;;;;4995075;28;20450;-64
2021/08/28 02:51:56;;;;;;;7.57;5.90;;;14.90;99.90;;;;;;4995245;28;20410;-64
2021/08/28 02:54:22;;;;;;;6.33;5.60;;;14.80;99.90;;;;;;4995265;28;20783;-64
2021/08/28 02:56:50;;;;;;;6.67;6.07;;;14.80;99.90;;;;;;4995045;28;20203;-64
2021/08/28 02:59:17;;;;;;;9.33;7.57;;;14.80;99.90;;;;;;4995008;28;20550;-63
2021/08/28 03:01:44;;;;;;;7.57;6.97;;;14.80;99.90;;;;;;4995078;28;20501;-62
2021/08/28 03:04:11;;;;;;;8.00;7.20;;;14.70;99.90;;;;;;4995073;28;20430;-63
2021/08/28 03:06:37;;;;;;;7.63;6.87;;;14.70;99.90;;;;;;4994915;28;20445;-64
2021/08/28 03:09:03;;;;;;;8.20;7.43;;;14.70;99.90;;;;;;4994602;28;20473;-63
2021/08/28 03:11:28;;;;;;;8.13;7.43;;;14.70;99.90;;;;;;4995137;28;20459;-64
2021/08/28 03:13:54;;;;;;;11.37;9.90;;;14.70;99.90;;;;;;4994897;28;20603;-63
2021/08/28 03:16:26;;;;;;;18.57;9.33;;;14.70;99.90;;;;;;4994517;28;20743;-64
2021/08/28 03:18:54;;;;;;;10.90;10.00;;;14.80;99.90;;;;;;4994544;28;20260;-64
2021/08/28 03:21:22;;;;;;;9.00;8.30;;;14.80;99.90;;;;;;4994771;28;20815;-64
2021/08/28 03:23:49;;;;;;;10.70;9.70;;;14.80;99.90;;;;;;4994643;28;20418;-64
2021/08/28 03:26:19;;;;;;;11.63;10.57;;;14.80;99.90;;;;;;4994572;28;20806;-64
2021/08/28 03:28:46;;;;;;;12.00;10.90;;;14.70;99.90;;;;;;4994580;28;20932;-64
2021/08/28 03:31:12;;;;;;;11.33;10.30;;;14.70;99.90;;;;;;4994585;28;20784;-63
2021/08/28 03:33:38;;;;;;;12.03;10.93;;;14.60;99.90;;;;;;4994531;28;20433;-64
2021/08/28 03:36:04;;;;;;;13.33;12.00;;;14.70;99.90;;;;;;4994335;28;20242;-63
2021/08/28 03:38:30;;;;;;;12.87;11.37;;;14.60;99.90;;;;;;4994448;28;20538;-63
2021/08/28 03:40:56;;;;;;;14.00;12.77;;;14.60;99.90;;;;;;4993696;28;20465;-63
2021/08/28 03:43:22;;;;;;;12.73;11.30;;;14.70;99.90;;;;;;4994601;28;20233;-63
2021/08/28 03:45:50;;;;;;;15.97;13.90;;;14.60;99.90;;;;;;4994136;28;20278;-63
2021/08/28 03:48:17;;;;;;;13.53;12.17;;;14.60;99.90;;;;;;4994146;28;20652;-64
2021/08/28 03:50:43;;;;;;;19.73;14.50;;;14.60;99.90;;;;;;4993982;28;20427;-63
2021/08/28 03:53:08;;;;;;;13.77;12.47;;;14.50;99.90;;;;;;4994133;28;20935;-64
2021/08/28 03:55:34;;;;;;;15.70;14.20;;;14.50;99.90;;;;;;4994207;28;20200;-63
2021/08/28 03:57:59;;;;;;;17.87;13.20;;;14.50;99.90;;;;;;4994023;28;20247;-63
2021/08/28 04:00:25;;;;;;;16.37;14.70;;;14.50;99.90;;;;;;4993706;28;20187;-63
2021/08/28 04:02:50;;;;;;;17.07;15.27;;;14.40;99.90;;;;;;4994122;28;20218;-64
2021/08/28 04:05:16;;;;;;;17.87;16.17;;;14.50;99.90;;;;;;4993696;28;20168;-62
2021/08/28 04:07:41;;;;;;;16.73;14.47;;;14.40;99.90;;;;;;4993814;28;20175;-63
2021/08/28 04:10:08;;;;;;;17.30;15.60;;;14.40;99.90;;;;;;4993510;28;20175;-63
2021/08/28 04:12:34;;;;;;;18.37;16.40;;;14.40;99.90;;;;;;4994017;28;20537;-63
2021/08/28 04:15:00;;;;;;;17.70;16.03;;;14.40;99.90;;;;;;4993702;28;20419;-63
2021/08/28 04:17:25;;;;;;;19.47;17.47;;;14.40;99.90;;;;;;4993965;28;20473;-63
2021/08/28 04:19:51;;;;;;;18.17;16.30;;;14.30;99.90;;;;;;4993356;28;20625;-63
2021/08/28 04:22:16;;;;;;;19.00;15.50;;;14.30;99.90;;;;;;4993439;28;20230;-63
2021/08/28 04:24:42;;;;;;;19.27;16.60;;;14.30;99.90;;;;;;4993794;28;20254;-63
2021/08/28 04:27:07;;;;;;;17.10;15.40;;;14.30;99.90;;;;;;4993446;28;20244;-63
2021/08/28 04:29:33;;;;;;;18.93;16.10;;;14.40;99.90;;;;;;4993456;28;20176;-63
2021/08/28 04:31:59;;;;;;;17.33;15.63;;;14.40;99.90;;;;;;4993439;28;20531;-62
2021/08/28 04:34:24;;;;;;;17.80;15.93;;;14.40;99.90;;;;;;4993407;28;20250;-63
2021/08/28 04:36:50;;;;;;;18.33;16.53;;;14.40;99.90;;;;;;4993111;28;20587;-63
2021/08/28 04:39:15;;;;;;;17.90;16.17;;;14.40;99.90;;;;;;4993050;28;20183;-62
2021/08/28 04:41:41;;;;;;;20.33;18.07;;;14.30;99.90;;;;;;4993276;28;20171;-64
2021/08/28 04:44:06;;;;;;;17.77;16.03;;;14.30;99.90;;;;;;4993191;28;20178;-63
2021/08/28 04:46:32;;;;;;;17.33;15.63;;;14.30;99.90;;;;;;4993126;28;20195;-63
2021/08/28 04:48:58;;;;;;;16.93;15.13;;;14.30;99.90;;;;;;4992870;28;20194;-63
2021/08/28 04:51:23;;;;;;;18.00;16.17;;;14.30;99.90;;;;;;4992814;28;20207;-63
2021/08/28 04:53:49;;;;;;;17.20;15.40;;;14.30;99.90;;;;;;4993255;28;20168;-63
2021/08/28 04:56:14;;;;;;;20.53;18.33;;;14.30;99.90;;;;;;4992860;28;20253;-63
2021/08/28 04:58:40;;;;;;;20.10;18.07;;;14.30;99.90;;;;;;4992720;28;20214;-63
2021/08/28 05:01:05;;;;;;;21.63;18.90;;;14.30;99.90;;;;;;4992937;28;20172;-63
2021/08/28 05:03:31;;;;;;;18.80;16.90;;;14.20;99.90;;;;;;4992912;28;20175;-62
2021/08/28 05:05:56;;;;;;;20.00;18.00;;;14.30;99.90;;;;;;4992611;28;20222;-63
2021/08/28 05:08:22;;;;;;;19.97;18.10;;;14.20;99.90;;;;;;4992883;28;20222;-63
2021/08/28 05:10:48;;;;;;;23.70;20.90;;;14.20;99.90;;;;;;4992712;28;20209;-63
2021/08/28 05:13:14;;;;;;;22.00;19.07;;;14.20;99.90;;;;;;4992759;28;20187;-62
2021/08/28 05:15:40;;;;;;;20.40;17.03;;;14.30;99.90;;;;;;4992526;28;20497;-63
2021/08/28 05:18:06;;;;;;;21.47;19.07;;;14.30;99.90;;;;;;4992729;28;20171;-63
2021/08/28 05:20:31;;;;;;;23.73;19.23;;;14.30;99.90;;;;;;4992849;28;20411;-63
2021/08/28 05:22:57;;;;;;;18.83;16.93;;;14.30;99.90;;;;;;4992695;28;20172;-63
2021/08/28 05:25:23;;;;;;;21.57;18.50;;;14.40;99.90;;;;;;4992621;28;20234;-63
2021/08/28 05:27:48;;;;;;;19.87;17.77;;;14.30;99.90;;;;;;4992574;28;20411;-64
2021/08/28 05:30:14;;;;;;;22.23;18.10;;;14.30;99.90;;;;;;4992274;28;20171;-63
2021/08/28 05:32:41;;;;;;;20.57;18.57;;;14.30;99.90;;;;;;4992639;28;20196;-63
2021/08/28 05:35:07;;;;;;;20.90;18.80;;;14.40;99.90;;;;;;4992568;28;20172;-64
2021/08/28 05:37:32;;;;;;;21.30;17.33;;;14.30;99.90;;;;;;4992413;28;20989;-63
2021/08/28 05:39:58;;;;;;;18.73;16.93;;;14.50;99.90;;;;;;4992225;28;20226;-64
2021/08/28 05:42:23;;;;;;;21.73;19.53;;;14.50;99.90;;;;;;4992538;28;20176;-63
2021/08/28 05:44:48;;;;;;;20.33;18.23;;;14.40;99.90;;;;;;4992499;28;20541;-63
2021/08/28 05:47:14;;;;;;;20.37;18.27;;;14.40;99.90;;;;;;4999786;28;20195;-63
2021/08/28 05:49:40;;;;;;;21.97;18.50;;;14.40;99.90;;;;;;4994918;28;20190;-63
2021/08/28 05:52:05;;;;;;;30.73;20.23;;;14.50;99.90;;;;;;4998996;28;20177;-62
2021/08/28 05:54:31;;;;;;;20.67;18.43;;;14.60;99.90;;;;;;5012078;28;20586;-63
2021/08/28 05:56:56;;;;;;;18.50;16.60;;;14.60;99.90;;;;;;5011930;28;20289;-63
2021/08/28 05:59:22;;;;;;;22.20;20.17;;;14.70;99.90;;;;;;5011400;28;20174;-63
2021/08/28 06:01:48;;;;;;;22.03;18.60;;;14.70;99.90;;;;;;5010719;28;20662;-63
2021/08/28 06:04:14;;;;;;;19.40;17.40;;;14.60;99.90;;;;;;5015401;28;20199;-63
2021/08/28 06:06:39;;;;;;;20.87;18.77;;;14.70;99.90;;;;;;5013084;28;20273;-63
2021/08/28 06:09:05;;;;;;;17.97;16.37;;;14.80;99.90;;;;;;5003533;28;20545;-63
2021/08/28 06:11:30;;;;;;;19.60;17.80;;;14.90;99.90;;;;;;4995906;28;20186;-63
2021/08/28 06:13:56;;;;;;;20.13;18.33;;;14.90;99.90;;;;;;4995898;28;20568;-63
2021/08/28 06:16:21;;;;;;;18.97;17.27;;;15.00;99.90;;;;;;5006432;28;20726;-63
2021/08/28 06:18:47;;;;;;;19.87;17.87;;;15.00;99.90;;;;;;4994182;28;20459;-63
2021/08/28 06:21:12;;;;;;;19.60;17.60;;;14.90;99.90;;;;;;4991781;28;20184;-63
2021/08/28 06:23:38;;;;;;;19.20;17.03;;;15.10;99.90;;;;;;4992033;28;20172;-62
2021/08/28 06:26:03;;;;;;;17.97;16.27;;;15.20;99.90;;;;;;4992142;28;20199;-63
2021/08/28 06:28:29;;;;;;;17.50;15.80;;;15.20;99.90;;;;;;4992056;28;20183;-63
2021/08/28 06:30:55;;;;;;;16.17;14.67;;;15.20;99.90;;;;;;4992410;28;20183;-62
2021/08/28 06:33:20;;;;;;;15.30;13.97;;;15.30;99.90;;;;;;4992750;28;20677;-63
2021/08/28 06:35:46;;;;;;;18.00;12.93;;;15.30;99.90;;;;;;4992008;28;20623;-63
2021/08/28 06:38:11;;;;;;;15.07;13.57;;;15.40;99.90;;;;;;4992260;28;20176;-63
2021/08/28 06:40:37;;;;;;;15.57;14.03;;;15.40;99.90;;;;;;4991914;28;20179;-63
2021/08/28 06:43:02;;;;;;;16.00;14.60;;;15.50;99.90;;;;;;4991941;28;20641;-63
2021/08/28 06:45:28;;;;;;;16.47;14.87;;;15.60;99.90;;;;;;4992154;28;20647;-65
2021/08/28 06:47:53;;;;;;;15.70;14.20;;;15.50;99.90;;;;;;4992057;28;20195;-65
2021/08/28 06:50:19;;;;;;;17.77;16.20;;;15.50;99.90;;;;;;4991593;28;20641;-65
2021/08/28 06:52:44;;;;;;;17.23;15.53;;;15.60;99.90;;;;;;4991977;28;20187;-62
2021/08/28 06:55:10;;;;;;;18.33;16.63;;;15.50;99.90;;;;;;4991921;28;20182;-61
2021/08/28 06:57:36;;;;;;;18.20;16.57;;;15.40;99.90;;;;;;4991817;28;20206;-63
2021/08/28 07:00:02;;;;;;;18.70;16.90;;;15.40;99.90;;;;;;4991553;28;20176;-62
2021/08/28 07:02:27;;;;;;;16.43;14.70;;;15.60;99.90;;;;;;4990647;28;20180;-62
2021/08/28 07:04:53;;;;;;;14.80;13.40;;;15.60;99.90;;;;;;4992283;28;20431;-62
2021/08/28 07:07:18;;;;;;;14.77;13.27;;;15.90;99.90;;;;;;4992081;28;20195;-62
2021/08/28 07:09:44;;;;;;;15.80;14.20;;;16.20;99.90;;;;;;4991257;28;20758;-62
2021/08/28 07:12:09;;;;;;;15.90;14.07;;;16.40;99.90;;;;;;4991757;28;20633;-62
2021/08/28 07:14:35;;;;;;;14.43;13.00;;;16.90;99.90;;;;;;4990686;28;20704;-62
2021/08/28 07:17:01;;;;;;;11.23;10.33;;;17.50;99.90;;;;;;4991349;28;20262;-62
2021/08/28 07:19:26;;;;;;;11.03;10.13;;;18.00;99.90;;;;;;4991215;28;20726;-62
2021/08/28 07:21:52;;;;;;;10.80;9.90;;;18.40;99.90;;;;;;4991524;28;20598;-62
2021/08/28 07:24:17;;;;;;;10.10;9.20;;;18.90;99.90;;;;;;4991281;28;20187;-61
2021/08/28 07:26:43;;;;;;;9.07;8.13;;;18.90;99.90;;;;;;4991585;28;20205;-63
2021/08/28 07:29:08;;;;;;;8.67;7.90;;;18.70;99.90;;;;;;4991323;28;20219;-62
2021/08/28 07:31:34;;;;;;;8.33;7.67;;;18.40;99.90;;;;;;4990568;28;20192;-60
2021/08/28 07:33:59;;;;;;;8.70;8.00;;;18.20;99.90;;;;;;4991270;28;20802;-61
2021/08/28 07:36:25;;;;;;;7.80;7.00;;;18.30;99.90;;;;;;4991414;28;20207;-62
2021/08/28 07:38:51;;;;;;;7.73;7.10;;;18.30;99.90;;;;;;4991043;28;20176;-61
2021/08/28 07:41:16;;;;;;;7.30;6.70;;;18.10;99.90;;;;;;4990968;28;20199;-62
2021/08/28 07:43:42;;;;;;;8.30;7.60;;;18.00;99.90;;;;;;4990642;28;20234;-61
2021/08/28 07:46:07;;;;;;;7.80;7.20;;;18.20;99.90;;;;;;4991003;28;20195;-62
2021/08/28 07:48:33;;;;;;;7.17;6.60;;;18.30;99.90;;;;;;4990902;28;20234;-62
2021/08/28 07:50:58;;;;;;;6.47;5.87;;;18.80;99.90;;;;;;4991032;28;20183;-62
2021/08/28 07:53:24;;;;;;;5.63;5.13;;;19.50;99.90;;;;;;4990835;28;20650;-62
2021/08/28 07:55:49;;;;;;;4.93;4.43;;;19.60;99.90;;;;;;4990678;28;20235;-62
2021/08/28 07:58:15;;;;;;;5.23;4.83;;;19.50;99.90;;;;;;4989996;28;20740;-61
2021/08/28 08:00:40;;;;;;;6.00;5.30;;;19.10;99.90;;;;;;4992008;28;20203;-62
2021/08/28 08:03:06;;;;;;;5.80;5.30;;;18.60;99.90;;;;;;4992349;28;20183;-61
2021/08/28 08:05:31;;;;;;;6.47;4.73;;;18.30;99.90;;;;;;4992578;28;20199;-64
2021/08/28 08:07:57;;;;;;;5.83;5.43;;;18.10;99.90;;;;;;4992359;28;20174;-61
2021/08/28 08:10:23;;;;;;;7.53;4.90;;;17.80;99.90;;;;;;4992604;28;20172;-62
2021/08/28 08:12:48;;;;;;;5.13;4.60;;;17.40;99.90;;;;;;4993234;28;20175;-62
2021/08/28 08:15:14;;;;;;;4.40;4.10;;;17.10;99.90;;;;;;4993590;28;20194;-62
2021/08/28 08:17:39;;;;;;;6.00;5.50;;;17.10;99.90;;;;;;4993601;28;20200;-62
2021/08/28 08:20:05;;;;;;;4.73;4.33;;;16.90;99.90;;;;;;4993288;28;20180;-62
2021/08/28 08:22:31;;;;;;;7.60;7.00;;;16.70;99.90;;;;;;4993354;28;20172;-62
2021/08/28 08:24:56;;;;;;;5.07;4.77;;;16.70;99.90;;;;;;4993280;28;20410;-62
2021/08/28 08:27:22;;;;;;;6.53;6.03;;;16.80;99.90;;;;;;4993391;28;20274;-62
2021/08/28 08:29:48;;;;;;;6.17;5.57;;;17.10;99.90;;;;;;4993190;28;20214;-63
2021/08/28 08:32:14;;;;;;;6.33;5.83;;;17.30;99.90;;;;;;4993846;28;20175;-62
2021/08/28 08:34:39;;;;;;;5.37;5.07;;;17.40;99.90;;;;;;4993426;28;20418;-62
2021/08/28 08:37:05;;;;;;;6.60;5.93;;;17.50;99.90;;;;;;4993081;28;20234;-62
2021/08/28 08:39:30;;;;;;;7.57;5.43;;;17.50;99.90;;;;;;4993023;28;20637;-62
2021/08/28 08:41:57;;;;;;;5.33;4.93;;;17.50;99.90;;;;;;4993296;28;20199;-62
2021/08/28 08:44:23;;;;;;;5.27;4.77;;;17.40;99.90;;;;;;4993343;28;20171;-62
2021/08/28 08:46:50;;;;;;;5.77;4.80;;;17.40;99.90;;;;;;4993155;28;20442;-61
2021/08/28 08:49:17;;;;;;;4.07;3.77;;;17.30;99.90;;;;;;4991546;28;20461;-62
2021/08/28 08:51:45;;;;;;;3.90;3.60;;;17.30;99.90;;;;;;4993048;28;20415;-62
2021/08/28 08:54:11;;;;;;;4.10;3.70;;;17.20;99.90;;;;;;4993077;28;20427;-62
2021/08/28 08:56:37;;;;;;;3.43;3.20;;;16.90;99.90;;;;;;4993279;28;20851;-62
2021/08/28 08:59:02;;;;;;;3.73;3.43;;;16.80;99.90;;;;;;4992777;28;20544;-62
2021/08/28 09:01:28;;;;;;;4.00;3.70;;;16.70;99.90;;;;;;4992939;28;20410;-61
2021/08/28 09:03:56;;;;;;;3.53;3.23;;;16.70;99.90;;;;;;4992885;28;20167;-62
2021/08/28 09:06:22;;;;;;;3.67;3.37;;;16.70;99.90;;;;;;4992742;28;20203;-63
2021/08/28 09:08:48;;;;;;;5.13;3.43;;;16.70;99.90;;;;;;4992544;28;20468;-62
2021/08/28 09:11:30;;;;;;;3.90;3.70;;;16.90;99.90;;;;;;4992848;28;20183;-62
2021/08/28 09:14:22;;;;;;;3.70;3.40;;;17.20;99.90;;;;;;4992876;28;20234;-62
2021/08/28 09:16:49;;;;;;;3.23;3.03;;;17.80;99.90;;;;;;4992570;28;20474;-62
2021/08/28 09:19:16;;;;;;;3.20;3.00;;;18.00;99.90;;;;;;4992532;28;20457;-62
2021/08/28 09:21:42;;;;;;;3.27;2.80;;;18.30;99.90;;;;;;4992581;28;20472;-62
2021/08/28 09:24:10;;;;;;;5.23;3.00;;;18.50;99.90;;;;;;4992730;28;20499;-62
2021/08/28 09:26:39;;;;;;;3.47;3.20;;;18.30;99.90;;;;;;4992616;28;20341;-63
2021/08/28 09:29:07;;;;;;;4.07;3.77;;;18.30;99.90;;;;;;4992232;28;20419;-61
2021/08/28 09:31:45;;;;;;;6.40;4.00;;;18.20;99.90;;;;;;4992865;28;20813;-62
2021/08/28 09:34:26;;;;;;;4.53;4.23;;;18.10;99.90;;;;;;4992537;28;20419;-62
2021/08/28 09:37:06;;;;;;;3.37;3.07;;;17.90;99.90;;;;;;4992383;28;20459;-62
2021/08/28 09:39:43;;;;;;;3.00;2.80;;;17.70;99.90;;;;;;4996793;28;20449;-61
2021/08/28 09:42:16;;;;;;;3.30;2.90;;;17.60;99.90;;;;;;4996603;28;20935;-62
2021/08/28 09:44:43;;;;;;;2.37;2.27;;;17.90;99.90;;;;;;4996495;28;20422;-61
2021/08/28 09:47:23;;;;;;;2.50;2.30;;;18.20;99.90;;;;;;4996447;28;20927;-62
2021/08/28 09:49:51;;;;;;;2.67;2.47;;;18.50;99.90;;;;;;4996116;28;20418;-62
2021/08/28 09:52:23;;;;;;;3.03;2.83;;;18.60;99.90;;;;;;4996281;28;20767;-62
2021/08/28 09:54:49;;;;;;;2.40;2.20;;;18.30;99.90;;;;;;4996411;28;20418;-62
2021/08/28 09:57:15;;;;;;;3.40;3.20;;;17.90;99.90;;;;;;4996168;28;20829;-62
2021/08/28 09:59:45;;;;;;;3.43;3.23;;;17.80;99.90;;;;;;4995949;28;20419;-62
2021/08/28 10:02:17;;;;;;;6.07;3.10;;;17.50;99.90;;;;;;4996266;28;20183;-62
2021/08/28 10:04:59;;;;;;;3.60;3.40;;;17.40;99.90;;;;;;4994832;28;20505;-62
2021/08/28 10:07:30;;;;;;;3.63;3.37;;;17.30;99.90;;;;;;4995912;28;20525;-62
2021/08/28 10:09:59;;;;;;;4.13;3.83;;;17.20;99.90;;;;;;4995739;28;20836;-61
2021/08/28 10:12:25;;;;;;;4.10;2.80;;;17.20;99.90;;;;;;4996051;28;20437;-61
2021/08/28 10:14:55;;;;;;;4.00;3.73;;;17.30;99.90;;;;;;4995899;28;20765;-61
2021/08/28 10:17:22;;;;;;;5.70;3.70;;;17.30;99.90;;;;;;4996265;28;20555;-60
2021/08/28 10:19:50;;;;;;;4.10;3.80;;;17.30;99.90;;;;;;4995534;28;20425;-59
2021/08/28 10:22:20;;;;;;;7.80;7.20;;;17.30;99.90;;;;;;4995713;28;20426;-59
2021/08/28 10:24:49;;;;;;;5.50;5.10;;;17.20;99.90;;;;;;4995783;28;20415;-60
2021/08/28 10:27:15;;;;;;;4.23;3.50;;;17.30;99.90;;;;;;4995727;28;20438;-59
2021/08/28 10:29:42;;;;;;;3.60;3.40;;;17.20;99.90;;;;;;4995439;28;20419;-61
2021/08/28 10:32:08;;;;;;;3.67;3.37;;;17.20;99.90;;;;;;4995663;28;20427;-58
2021/08/28 10:34:33;;;;;;;3.93;3.43;;;17.10;99.90;;;;;;4995607;28;20418;-60
2021/08/28 10:36:59;;;;;;;3.10;2.90;;;17.10;99.90;;;;;;4995277;28;20715;-62
2021/08/28 10:39:25;;;;;;;3.00;2.80;;;17.00;99.90;;;;;;4995240;28;20167;-62
2021/08/28 10:41:52;;;;;;;3.17;2.97;;;16.90;99.90;;;;;;4995400;28;20788;-62
2021/08/28 10:44:18;;;;;;;4.60;2.87;;;16.90;99.90;;;;;;4994207;28;20430;-62
2021/08/28 10:46:43;;;;;;;3.23;3.00;;;17.00;99.90;;;;;;4995368;28;20447;-60
2021/08/28 10:49:11;;;;;;;3.90;2.80;;;17.30;99.90;;;;;;4994915;28;20180;-61
2021/08/28 10:51:41;;;;;;;2.87;2.67;;;17.50;99.90;;;;;;4995211;28;20174;-60
2021/08/28 10:54:13;;;;;;;3.17;2.87;;;17.70;99.90;;;;;;4995289;28;20414;-59
2021/08/28 10:56:55;;;;;;;5.03;3.07;;;17.90;99.90;;;;;;4995017;28;20554;-61
2021/08/28 10:59:22;;;;;;;2.70;2.43;;;18.00;99.90;;;;;;4994989;28;20415;-61
2021/08/28 11:02:06;;;;;;;2.70;2.50;;;18.30;99.90;;;;;;4995138;28;20924;-61
2021/08/28 11:04:40;;;;;;;3.33;3.03;;;18.60;99.90;;;;;;4995108;28;20414;-62
2021/08/28 11:07:17;;;;;;;2.53;2.43;;;18.90;99.90;;;;;;4993892;28;20842;-62
2021/08/28 11:10:03;;;;;;;2.80;2.60;;;19.20;99.90;;;;;;4994685;28;20418;-63
2021/08/28 11:12:40;;;;;;;3.20;2.90;;;19.40;99.90;;;;;;4994987;28;20493;-62
2021/08/28 11:15:31;;;;;;;3.33;3.13;;;19.40;99.90;;;;;;4994990;28;20417;-62
2021/08/28 11:18:04;;;;;;;4.10;3.80;;;19.30;99.90;;;;;;4994775;28;20852;-61
2021/08/28 11:20:43;;;;;;;3.57;2.97;;;19.80;99.90;;;;;;4994414;28;20481;-61
2021/08/28 11:23:16;;;;;;;3.30;3.10;;;20.30;99.90;;;;;;4994790;28;20473;-62
2021/08/28 11:25:47;;;;;;;2.80;2.60;;;21.00;99.90;;;;;;4994604;28;20951;-62
2021/08/28 11:28:13;;;;;;;2.47;2.27;;;21.60;99.90;;;;;;4994584;28;20461;-62
2021/08/28 11:30:45;;;;;;;1.70;1.60;;;21.30;99.90;;;;;;4994454;28;20422;-62
2021/08/28 11:33:20;;;;;;;2.20;2.00;;;21.20;99.90;;;;;;4994538;28;20403;-62
2021/08/28 11:35:52;;;;;;;1.80;1.70;;;21.00;99.90;;;;;;4994382;28;20870;-61
2021/08/28 11:38:23;;;;;;;1.87;1.77;;;20.80;99.90;;;;;;4994305;28;20423;-61
2021/08/28 11:41:11;;;;;;;1.43;1.40;;;20.60;99.90;;;;;;4994425;28;20502;-61
2021/08/28 11:43:40;;;;;;;3.23;3.03;;;20.40;99.90;;;;;;4994471;28;20469;-61
2021/08/28 11:46:14;;;;;;;1.90;1.80;;;20.20;99.90;;;;;;4994253;28;20430;-61
2021/08/28 11:48:43;;;;;;;2.60;2.40;;;20.10;99.90;;;;;;4993952;28;20428;-61
2021/08/28 11:51:15;;;;;;;2.23;2.13;;;19.90;99.90;;;;;;4994219;28;20421;-62
2021/08/28 11:53:42;;;;;;;2.60;2.40;;;19.90;99.90;;;;;;4994275;28;20458;-62
2021/08/28 11:56:19;;;;;;;2.30;2.20;;;20.20;99.90;;;;;;4994052;28;20868;-61
2021/08/28 11:58:56;;;;;;;2.67;2.47;;;20.10;99.90;;;;;;4993832;28;20411;-62
2021/08/28 12:01:37;;;;;;;4.70;2.83;;;20.20;99.90;;;;;;4992017;28;20519;-61
2021/08/28 12:04:14;;;;;;;2.97;2.67;;;20.10;99.90;;;;;;4993969;28;20450;-61
2021/08/28 12:06:42;;;;;;;3.33;3.03;;;19.90;99.90;;;;;;4993910;28;20744;-60
2021/08/28 12:09:09;;;;;;;8.60;2.90;;;20.00;99.90;;;;;;4993608;28;20419;-61
2021/08/28 12:11:37;;;;;;;3.27;3.07;;;19.40;99.90;;;;;;4993749;28;20468;-60
2021/08/28 12:14:07;;;;;;;2.53;2.30;;;19.30;99.90;;;;;;4993775;28;20439;-62
2021/08/28 12:16:35;;;;;;;3.03;2.83;;;19.80;99.90;;;;;;4993740;28;20896;-62
2021/08/28 12:19:08;;;;;;;2.90;2.60;;;19.90;99.90;;;;;;4993437;28;20418;-62
2021/08/28 12:21:42;;;;;;;2.47;2.27;;;20.30;99.90;;;;;;4993348;28;20415;-62
2021/08/28 12:24:28;;;;;;;3.33;3.13;;;19.90;99.90;;;;;;4993424;28;20792;-62
2021/08/28 12:26:55;;;;;;;3.90;2.20;;;19.80;99.90;;;;;;4993437;28;20443;-62
2021/08/28 12:29:33;;;;;;;2.73;2.63;;;20.50;99.90;;;;;;4992178;28;20494;-63
2021/08/28 12:32:15;;;;;;;3.57;3.27;;;20.70;99.90;;;;;;4993638;28;20422;-63
2021/08/28 12:34:43;;;;;;;2.93;2.73;;;22.20;99.90;;;;;;4993608;28;20407;-63
2021/08/28 12:37:14;;;;;;;2.83;2.63;;;24.10;99.90;;;;;;4993126;28;20513;-63
2021/08/28 12:39:47;;;;;;;2.30;2.20;;;25.50;99.90;;;;;;4993075;28;20422;-63
2021/08/28 12:42:15;;;;;;;2.40;2.30;;;26.20;99.90;;;;;;4993320;28;20564;-63
2021/08/28 12:44:52;;;;;;;2.30;2.10;;;26.60;99.50;;;;;;4993270;28;20418;-63